createdAt,value
2024-02-29T00:01:18.077Z,10.1
2024-02-29T00:04:20.049Z,9.7
2024-02-29T00:07:22.006Z,10
2024-02-29T00:10:24.267Z,10.2
2024-02-29T00:13:26.023Z,9.5
2024-02-29T00:16:27.898Z,9.4
2024-02-29T00:19:29.893Z,9.3
2024-02-29T00:22:31.829Z,9.9
2024-02-29T00:25:33.852Z,10.4
2024-02-29T00:28:35.750Z,12.4
2024-02-29T00:31:37.715Z,10.6
2024-02-29T00:34:39.726Z,10.5
2024-02-29T00:37:41.649Z,11.4
2024-02-29T00:40:43.663Z,10.7
2024-02-29T00:43:45.695Z,10.2
2024-02-29T00:46:47.648Z,9.7
2024-02-29T00:49:49.584Z,9.6
2024-02-29T00:52:51.544Z,9.4
2024-02-29T00:55:53.473Z,10.5
2024-02-29T00:58:55.487Z,10.1
2024-02-29T01:01:57.558Z,9
2024-02-29T01:04:59.382Z,9.9
2024-02-29T01:08:01.381Z,10.2
2024-02-29T01:11:03.390Z,9.8
2024-02-29T01:14:05.267Z,9.1
2024-02-29T01:17:07.204Z,8.7
2024-02-29T01:20:09.214Z,9.2
2024-02-29T01:23:11.160Z,9.1
2024-02-29T01:26:13.083Z,9.3
2024-02-29T01:32:19.053Z,9.4
2024-02-29T01:35:18.952Z,10.6
2024-02-29T01:38:20.893Z,9.9
2024-02-29T01:41:22.892Z,10.1
2024-02-29T01:44:24.876Z,9.9
2024-02-29T01:47:26.797Z,10
2024-02-29T01:50:28.724Z,10
2024-02-29T01:53:30.682Z,10.6
2024-02-29T01:56:32.692Z,10
2024-02-29T01:59:34.719Z,9.9
2024-02-29T02:02:36.574Z,9.4
2024-02-29T02:05:38.510Z,9.3
2024-02-29T02:11:42.411Z,8.4
2024-02-29T02:14:44.435Z,7.8
2024-02-29T02:17:46.361Z,8
2024-02-29T02:20:48.351Z,7.6
2024-02-29T02:23:50.246Z,7.8
2024-02-29T02:26:52.249Z,7.7
2024-02-29T02:29:54.549Z,8.3
2024-02-29T02:32:56.126Z,8.1
2024-02-29T02:35:58.046Z,8.2
2024-02-29T02:39:00.043Z,8.3
2024-02-29T02:42:02.001Z,9
2024-02-29T02:45:04.017Z,8.3
2024-02-29T02:48:05.962Z,8.6
2024-02-29T02:51:07.920Z,8.5
2024-02-29T02:54:09.788Z,8
2024-02-29T02:57:11.746Z,8.9
2024-02-29T03:00:13.720Z,8.4
2024-02-29T03:03:15.669Z,9.3
2024-02-29T03:06:17.617Z,9.2
2024-02-29T03:09:19.644Z,9.7
2024-02-29T03:12:21.648Z,9.4
2024-02-29T03:15:23.630Z,9.8
2024-02-29T03:18:25.604Z,8.9
2024-02-29T03:21:27.525Z,10.1
2024-02-29T03:24:29.470Z,9.4
2024-02-29T03:27:31.422Z,9.2
2024-02-29T03:30:33.354Z,8.8
2024-02-29T03:33:35.332Z,9.9
2024-02-29T03:36:37.285Z,9.4
2024-02-29T03:39:39.272Z,8.9
2024-02-29T03:42:41.337Z,9.9
2024-02-29T03:45:43.259Z,8.6
2024-02-29T03:48:45.161Z,10.2
2024-02-29T03:51:47.164Z,9.3
2024-02-29T03:54:49.098Z,8.6
2024-02-29T03:57:50.993Z,9.3
2024-02-29T04:00:53.095Z,10.3
2024-02-29T04:03:54.943Z,9.3
2024-02-29T04:06:56.876Z,9.5
2024-02-29T04:09:58.834Z,10.1
2024-02-29T04:13:00.892Z,9.9
2024-02-29T04:16:02.830Z,9.5
2024-02-29T04:19:04.746Z,10
2024-02-29T04:22:06.702Z,10.8
2024-02-29T04:25:08.747Z,10.4
2024-02-29T04:28:10.731Z,12.1
2024-02-29T04:31:12.619Z,9.9
2024-02-29T04:34:14.590Z,9.7
2024-02-29T04:37:16.588Z,10
2024-02-29T04:40:18.509Z,9.6
2024-02-29T04:43:20.411Z,10.5
2024-02-29T04:46:22.397Z,9.5
2024-02-29T04:49:24.306Z,9.6
2024-02-29T04:52:26.293Z,9.6
2024-02-29T04:55:28.254Z,9.4
2024-02-29T04:58:30.195Z,10.1
2024-02-29T05:01:32.206Z,9.7
2024-02-29T05:04:34.055Z,9.8
2024-02-29T05:07:36.044Z,9
2024-02-29T05:10:38.026Z,10.5
2024-02-29T05:13:39.967Z,9.6
2024-02-29T05:16:41.939Z,9.8
2024-02-29T05:19:43.809Z,9.6
2024-02-29T05:22:45.785Z,9.3
2024-02-29T05:25:47.800Z,9.6
2024-02-29T05:28:49.814Z,10.4
2024-02-29T05:31:51.640Z,9.6
2024-02-29T05:34:53.586Z,9.7
2024-02-29T05:37:57.160Z,9.6
2024-02-29T05:40:57.523Z,9.6
2024-02-29T05:43:59.469Z,9.4
2024-02-29T05:47:01.362Z,9.4
2024-02-29T05:50:03.376Z,9.7
2024-02-29T05:53:05.329Z,9.4
2024-02-29T05:56:07.235Z,9.1
2024-02-29T06:02:11.236Z,8.4
2024-02-29T06:05:13.199Z,9.3
2024-02-29T06:08:16.967Z,9.5
2024-02-29T06:11:17.180Z,9.1
2024-02-29T06:14:19.164Z,8.7
2024-02-29T06:17:21.107Z,9.1
2024-02-29T06:20:23.122Z,9.5
2024-02-29T06:23:25.081Z,8.8
2024-02-29T06:26:27.100Z,9.6
2024-02-29T06:29:29.002Z,8.9
2024-02-29T06:32:30.888Z,9.2
2024-02-29T06:35:32.880Z,9.6
2024-02-29T06:41:36.743Z,10.5
2024-02-29T06:44:38.720Z,9.3
2024-02-29T06:47:40.697Z,10.3
2024-02-29T06:50:42.748Z,10.3
2024-02-29T06:53:44.615Z,10.1
2024-02-29T06:56:46.563Z,10.1
2024-02-29T06:59:49.981Z,10
2024-02-29T07:02:50.417Z,10.6
2024-02-29T07:05:52.421Z,10.2
2024-02-29T07:08:54.333Z,9.8
2024-02-29T07:11:56.311Z,10.4
2024-02-29T07:14:58.266Z,10.9
2024-02-29T07:18:00.318Z,9.9
2024-02-29T07:21:02.273Z,12
2024-02-29T07:24:04.189Z,11.4
2024-02-29T07:27:06.157Z,11.2
2024-02-29T07:30:08.217Z,11.4
2024-02-29T07:33:10.121Z,10.6
2024-02-29T07:36:12.148Z,10.3
2024-02-29T07:39:14.094Z,10.2
2024-02-29T07:42:15.998Z,11.3
2024-02-29T07:45:20.316Z,11.5
2024-02-29T07:48:19.898Z,11.1
2024-02-29T07:51:21.853Z,12.2
2024-02-29T07:54:23.815Z,10
2024-02-29T07:57:25.827Z,11.5
2024-02-29T08:00:27.701Z,10.9
2024-02-29T08:03:29.642Z,12.4
2024-02-29T08:06:31.650Z,12.4
2024-02-29T08:09:33.541Z,12.7
2024-02-29T08:12:35.597Z,12.1
2024-02-29T08:15:37.565Z,13
2024-02-29T08:18:39.518Z,11
2024-02-29T08:21:41.616Z,11.2
2024-02-29T08:24:43.447Z,12.6
2024-02-29T08:27:45.438Z,12.7
2024-02-29T08:30:47.470Z,12.8
2024-02-29T08:33:49.275Z,13
2024-02-29T08:36:51.353Z,14.6
2024-02-29T08:39:53.233Z,13.9
2024-02-29T08:42:55.279Z,12.1
2024-02-29T08:45:57.136Z,13.8
2024-02-29T08:49:01.273Z,13.5
2024-02-29T08:52:01.124Z,11.9
2024-02-29T08:55:02.991Z,13.2
2024-02-29T08:58:04.946Z,13
2024-02-29T09:01:06.893Z,12.7
2024-02-29T09:04:08.844Z,12.2
2024-02-29T09:07:10.829Z,12.4
2024-02-29T09:10:12.792Z,11.7
2024-02-29T09:13:19.832Z,12.1
2024-02-29T09:16:16.702Z,12.7
2024-02-29T09:19:18.639Z,14.7
2024-02-29T09:22:20.597Z,17
2024-02-29T09:25:22.542Z,15.2
2024-02-29T09:28:24.444Z,13.7
2024-02-29T09:31:26.529Z,17.4
2024-02-29T09:34:28.485Z,15.6
2024-02-29T09:37:30.412Z,16.5
2024-02-29T09:40:38.372Z,15.3
2024-02-29T09:43:37.160Z,14.9
2024-02-29T09:46:39.072Z,16.2
2024-02-29T09:49:42.106Z,19
2024-02-29T09:52:43.000Z,17.6
2024-02-29T09:55:44.949Z,17.9
2024-02-29T09:58:46.892Z,19.7
2024-02-29T10:01:49.211Z,23.6
2024-02-29T10:04:50.905Z,22.3
2024-02-29T10:07:52.798Z,21.7
2024-02-29T10:10:55.240Z,21
2024-02-29T10:13:56.788Z,21.4
2024-02-29T10:16:58.685Z,18.5
2024-02-29T10:20:00.631Z,17.3
2024-02-29T10:23:02.607Z,21.2
2024-02-29T10:26:04.509Z,22.2
2024-02-29T10:29:06.498Z,17.5
2024-02-29T10:32:08.477Z,20.9
2024-02-29T10:35:10.514Z,20.8
2024-02-29T10:38:12.448Z,19.8
2024-02-29T10:41:14.404Z,19.1
2024-02-29T10:44:16.374Z,19.5
2024-02-29T10:47:18.413Z,20.6
2024-02-29T10:50:20.427Z,18.4
2024-02-29T10:53:22.390Z,18.2
2024-02-29T10:56:24.423Z,18.7
2024-02-29T10:59:26.344Z,19.7
2024-02-29T11:02:28.183Z,18.6
2024-02-29T11:05:30.246Z,16.3
2024-02-29T11:11:34.141Z,17.8
2024-02-29T11:14:36.078Z,14.5
2024-02-29T11:17:38.128Z,15.1
2024-02-29T11:20:40.000Z,16.1
2024-02-29T11:23:42.097Z,14.8
2024-02-29T11:26:44.078Z,18.9
2024-02-29T11:29:46.066Z,17.3
2024-02-29T11:32:48.054Z,15.4
2024-02-29T11:35:49.976Z,16
2024-02-29T11:38:51.893Z,17.2
2024-02-29T11:41:53.810Z,17.2
2024-02-29T11:44:55.863Z,15.5
2024-02-29T11:47:57.738Z,15.2
2024-02-29T11:50:59.672Z,14.9
2024-02-29T11:54:01.625Z,17.2
2024-02-29T11:57:03.601Z,16.7
2024-02-29T12:00:05.578Z,13.1
2024-02-29T12:03:07.511Z,13.3
2024-02-29T12:06:09.503Z,13.2
2024-02-29T12:09:11.521Z,17.6
2024-02-29T12:12:13.429Z,18.5
2024-02-29T12:15:15.552Z,17.8
2024-02-29T12:18:17.441Z,18.3
2024-02-29T12:21:19.472Z,17.1
2024-02-29T12:24:21.430Z,18.1
2024-02-29T12:27:23.374Z,13.4
2024-02-29T12:30:25.491Z,17.3
2024-02-29T12:33:29.065Z,19.4
2024-02-29T12:36:29.453Z,14.9
2024-02-29T12:39:31.377Z,16.1
2024-02-29T12:42:33.323Z,17
2024-02-29T12:45:35.383Z,14.9
2024-02-29T12:48:37.421Z,16.8
2024-02-29T12:51:39.351Z,16.8
2024-02-29T12:54:41.354Z,16.4
2024-02-29T12:57:43.318Z,12.6
2024-02-29T13:00:45.519Z,11.2
2024-02-29T13:03:47.258Z,17.9
2024-02-29T13:06:49.362Z,14
2024-02-29T13:09:51.201Z,13.4
2024-02-29T13:12:54.665Z,15.3
2024-02-29T13:15:56.281Z,15.5
2024-02-29T13:18:57.157Z,13.8
2024-02-29T13:21:59.036Z,14.5
2024-02-29T13:25:01.038Z,13.3
2024-02-29T13:28:02.921Z,16.7
2024-02-29T13:31:04.902Z,12.4
2024-02-29T13:34:17.035Z,13.1
2024-02-29T13:37:09.112Z,13.3
2024-02-29T13:40:10.977Z,14.2
2024-02-29T13:43:12.858Z,12.3
2024-02-29T13:46:14.766Z,11.7
2024-02-29T13:49:19.876Z,12.6
2024-02-29T13:52:19.158Z,11.3
2024-02-29T13:55:20.641Z,13.6
2024-02-29T13:58:22.630Z,10.5
2024-02-29T14:01:24.606Z,10.5
2024-02-29T14:04:26.970Z,12
2024-02-29T14:07:28.509Z,10.2
2024-02-29T14:10:30.482Z,11
2024-02-29T14:13:32.391Z,11.8
2024-02-29T14:16:34.312Z,12.2
2024-02-29T14:19:36.388Z,10.4
2024-02-29T14:22:38.298Z,10.4
2024-02-29T14:25:40.376Z,10.6
2024-02-29T14:28:42.268Z,13.2
2024-02-29T14:31:44.188Z,13.6
2024-02-29T14:34:46.146Z,10.4
2024-02-29T14:37:48.208Z,11.3
2024-02-29T14:40:50.098Z,10.4
2024-02-29T14:43:52.095Z,12.1
2024-02-29T14:46:54.019Z,12
2024-02-29T14:49:55.978Z,11
2024-02-29T14:52:57.921Z,13.7
2024-02-29T14:55:59.997Z,10.9
2024-02-29T15:02:03.930Z,13
2024-02-29T15:05:05.757Z,12.3
2024-02-29T15:08:07.714Z,12.4
2024-02-29T15:11:09.778Z,11.9
2024-02-29T15:14:11.667Z,14.3
2024-02-29T15:17:13.592Z,14.8
2024-02-29T15:20:15.636Z,10.9
2024-02-29T15:23:17.660Z,12.7
2024-02-29T15:26:19.989Z,10.1
2024-02-29T15:29:23.815Z,12.3
2024-02-29T15:32:26.259Z,12.5
2024-02-29T15:35:25.819Z,11.7
2024-02-29T15:41:29.778Z,11.5
2024-02-29T15:44:31.719Z,10.6
2024-02-29T15:47:33.689Z,11.8
2024-02-29T15:50:35.715Z,14.9
2024-02-29T15:53:37.711Z,12.1
2024-02-29T15:56:39.826Z,15.5
2024-02-29T15:59:41.782Z,14.8
2024-02-29T16:02:43.760Z,11.9
2024-02-29T16:05:45.769Z,13
2024-02-29T16:11:49.783Z,14.4
2024-02-29T16:14:51.678Z,15.3
2024-02-29T16:17:56.727Z,13.7
2024-02-29T16:21:07.813Z,11.9
2024-02-29T16:23:59.783Z,11.6
2024-02-29T16:27:02.289Z,12.8
2024-02-29T16:30:04.331Z,11
2024-02-29T16:33:06.271Z,10.7
2024-02-29T16:36:08.302Z,13.2
2024-02-29T16:39:10.403Z,10.1
2024-02-29T16:42:12.305Z,13.2
2024-02-29T16:45:14.291Z,10.7
2024-02-29T16:48:16.335Z,12
2024-02-29T16:51:18.317Z,11
2024-02-29T16:54:20.256Z,12.6
2024-02-29T16:57:22.358Z,15
2024-02-29T17:00:27.404Z,13.6
2024-02-29T17:03:29.394Z,14.5
2024-02-29T17:06:31.436Z,12.4
2024-02-29T17:09:35.213Z,15.2
2024-02-29T17:12:35.369Z,11.1
2024-02-29T17:15:38.300Z,10.6
2024-02-29T17:18:39.476Z,15.3
2024-02-29T17:21:42.711Z,12.2
2024-02-29T17:24:43.329Z,15.3
2024-02-29T17:27:45.372Z,13.1
2024-02-29T17:30:47.309Z,11.8
2024-02-29T17:33:49.399Z,11.4
2024-02-29T17:36:51.451Z,12.7
2024-02-29T17:39:53.372Z,14.5
2024-02-29T17:42:55.462Z,15.2
2024-02-29T17:45:57.368Z,11.5
2024-02-29T17:48:59.356Z,11.1
2024-02-29T17:52:01.355Z,14.1
2024-02-29T17:55:03.403Z,14.9
2024-02-29T17:58:05.261Z,13.3
2024-02-29T18:01:07.224Z,11.5
2024-02-29T18:04:09.157Z,14.3
2024-02-29T18:07:11.224Z,12.4
2024-02-29T18:10:13.171Z,14
2024-02-29T18:13:15.097Z,11
2024-02-29T18:16:17.097Z,12.1
2024-02-29T18:19:19.085Z,12.7
2024-02-29T18:22:21.041Z,13.7
2024-02-29T18:25:23.009Z,12.1
2024-02-29T18:28:24.902Z,13.1
2024-02-29T18:31:27.068Z,13.3
2024-02-29T18:34:28.952Z,15.1
2024-02-29T18:37:30.820Z,11.9
2024-02-29T18:40:32.960Z,11.8
2024-02-29T18:43:34.741Z,11.5
2024-02-29T18:46:36.831Z,12.1
2024-02-29T18:49:38.741Z,13
2024-02-29T18:52:40.885Z,12.8
2024-02-29T18:55:42.709Z,12.9
2024-02-29T18:58:44.608Z,13.2
2024-02-29T19:01:46.660Z,11.7
2024-02-29T19:04:48.530Z,13.6
2024-02-29T19:07:50.513Z,12.3
2024-02-29T19:10:52.580Z,14
2024-02-29T19:13:54.380Z,12.3
2024-02-29T19:16:56.368Z,12.8
2024-02-29T19:19:58.314Z,12.1
2024-02-29T19:23:00.327Z,12.1
2024-02-29T19:26:02.285Z,13.5
2024-02-29T19:32:06.160Z,13.4
2024-02-29T19:35:08.092Z,11.9
2024-02-29T19:38:10.049Z,12
2024-02-29T19:41:12.004Z,11.7
2024-02-29T19:44:13.982Z,11.4
2024-02-29T19:47:15.966Z,14
2024-02-29T19:50:17.896Z,15.2
2024-02-29T19:53:19.873Z,14.7
2024-02-29T19:56:21.850Z,12.2
2024-02-29T20:02:26.134Z,13.4
2024-02-29T20:05:27.740Z,14.7
2024-02-29T20:11:31.759Z,15.8
2024-02-29T20:14:33.612Z,15.4
2024-02-29T20:17:35.645Z,16.8
2024-02-29T20:20:37.573Z,14.9
2024-02-29T20:23:39.461Z,14.5
2024-02-29T20:26:41.423Z,16
2024-02-29T20:29:43.365Z,15.7
2024-02-29T20:32:45.391Z,16.2
2024-02-29T20:35:47.273Z,14
2024-02-29T20:41:51.277Z,12.3
2024-02-29T20:44:53.155Z,14.3
2024-02-29T20:47:55.173Z,12.6
2024-02-29T20:50:57.090Z,12.8
2024-02-29T20:53:59.057Z,12.8
2024-02-29T20:57:00.985Z,14.2
2024-02-29T21:00:02.993Z,14
2024-02-29T21:03:04.910Z,15.9
2024-02-29T21:06:06.915Z,14.1
2024-02-29T21:09:08.826Z,15.3
2024-02-29T21:12:10.816Z,12.7
2024-02-29T21:15:12.811Z,13.8
2024-02-29T21:18:14.745Z,13.7
2024-02-29T21:21:18.928Z,14.7
2024-02-29T21:24:18.609Z,12.7
2024-02-29T21:27:20.659Z,14.8
2024-02-29T21:30:22.757Z,13.7
2024-02-29T21:33:24.854Z,12.9
2024-02-29T21:36:26.705Z,12.2
2024-02-29T21:39:32.455Z,14.1
2024-02-29T21:42:30.663Z,14.3
2024-02-29T21:45:32.571Z,14.1
2024-02-29T21:48:34.573Z,13.3
2024-02-29T21:51:36.559Z,14.8
2024-02-29T21:54:38.445Z,13.4
2024-02-29T21:57:40.387Z,12.8
2024-02-29T22:00:42.351Z,13.4
2024-02-29T22:03:44.423Z,14.1
2024-02-29T22:06:46.315Z,11.7
2024-02-29T22:09:48.311Z,12.4
2024-02-29T22:12:50.195Z,14.5
2024-02-29T22:15:52.183Z,13.6
2024-02-29T22:18:54.138Z,12.3
2024-02-29T22:21:56.439Z,14.7
2024-02-29T22:24:58.045Z,12.7
2024-02-29T22:27:59.964Z,13.6
2024-02-29T22:31:02.009Z,12.3
2024-02-29T22:34:03.991Z,11.9
2024-02-29T22:37:05.858Z,13.1
2024-02-29T22:40:07.918Z,14.3
2024-02-29T22:43:09.801Z,14.8
2024-02-29T22:46:11.777Z,13.2
2024-02-29T22:49:13.658Z,14.5
2024-02-29T22:52:15.668Z,14
2024-02-29T22:55:17.667Z,12.7
2024-02-29T22:58:19.632Z,12.4
2024-02-29T23:01:21.515Z,13.4
2024-02-29T23:04:23.545Z,12.8
2024-02-29T23:07:25.549Z,15
2024-02-29T23:10:27.450Z,14.9
2024-02-29T23:13:29.479Z,13.2
2024-02-29T23:16:31.464Z,13.5
2024-02-29T23:19:33.333Z,14
2024-02-29T23:22:35.276Z,12.3
2024-02-29T23:25:37.239Z,13.6
2024-02-29T23:28:39.184Z,13.3
2024-02-29T23:31:41.220Z,14.8
2024-02-29T23:34:43.134Z,14.7
2024-02-29T23:37:45.138Z,13.6
2024-02-29T23:40:47.020Z,14.1
2024-02-29T23:43:49.141Z,13.3
2024-02-29T23:46:50.987Z,13.3
2024-02-29T23:49:52.879Z,14.2
2024-02-29T23:52:54.864Z,12.8
2024-02-29T23:55:56.833Z,12.3
